sensor_id;sensor_type;location;lat;lon;timestamp;temperature;humidity
22895;DHT22;11614;52.494;6.976;2022-07-29T00:04:19;16.20;99.90
22895;DHT22;11614;52.494;6.976;2022-07-29T00:06:45;16.10;99.90
22895;DHT22;11614;52.494;6.976;2022-07-29T00:09:10;16.30;99.90
22895;DHT22;11614;52.494;6.976;2022-07-29T00:14:02;16.30;99.90
22895;DHT22;11614;52.494;6.976;2022-07-29T00:23:46;15.90;99.90
22895;DHT22;11614;52.494;6.976;2022-07-29T00:26:11;15.90;99.90
22895;DHT22;11614;52.494;6.976;2022-07-29T00:28:37;16.00;99.90
22895;DHT22;11614;52.494;6.976;2022-07-29T00:43:14;16.00;99.90
22895;DHT22;11614;52.494;6.976;2022-07-29T00:45:41;15.90;99.90
22895;DHT22;11614;52.494;6.976;2022-07-29T00:48:06;16.10;99.90
22895;DHT22;11614;52.494;6.976;2022-07-29T00:50:34;16.00;99.90
22895;DHT22;11614;52.494;6.976;2022-07-29T00:53:01;16.10;99.90
22895;DHT22;11614;52.494;6.976;2022-07-29T01:00:25;16.00;99.90
22895;DHT22;11614;52.494;6.976;2022-07-29T01:02:51;15.90;99.90
22895;DHT22;11614;52.494;6.976;2022-07-29T01:05:18;15.90;99.90
22895;DHT22;11614;52.494;6.976;2022-07-29T01:07:44;16.10;99.90
22895;DHT22;11614;52.494;6.976;2022-07-29T01:10:12;16.00;99.90
22895;DHT22;11614;52.494;6.976;2022-07-29T01:12:40;15.90;99.90
22895;DHT22;11614;52.494;6.976;2022-07-29T01:15:07;15.90;99.90
22895;DHT22;11614;52.494;6.976;2022-07-29T01:20:26;16.00;99.90
22895;DHT22;11614;52.494;6.976;2022-07-29T01:31:22;16.00;99.90
22895;DHT22;11614;52.494;6.976;2022-07-29T01:33:57;16.00;99.90
22895;DHT22;11614;52.494;6.976;2022-07-29T01:39:05;16.00;99.90
22895;DHT22;11614;52.494;6.976;2022-07-29T01:41:32;15.70;99.90
22895;DHT22;11614;52.494;6.976;2022-07-29T01:44:06;16.00;99.90
22895;DHT22;11614;52.494;6.976;2022-07-29T01:46:38;15.90;99.90
22895;DHT22;11614;52.494;6.976;2022-07-29T01:49:21;15.80;99.90
22895;DHT22;11614;52.494;6.976;2022-07-29T01:52:07;16.00;99.90
22895;DHT22;11614;52.494;6.976;2022-07-29T01:54:42;16.00;99.90
22895;DHT22;11614;52.494;6.976;2022-07-29T01:57:10;15.90;99.90
22895;DHT22;11614;52.494;6.976;2022-07-29T01:59:37;16.00;99.90
22895;DHT22;11614;52.494;6.976;2022-07-29T02:02:04;16.00;99.90
22895;DHT22;11614;52.494;6.976;2022-07-29T02:04:35;16.00;99.90
22895;DHT22;11614;52.494;6.976;2022-07-29T02:07:05;15.90;99.90
22895;DHT22;11614;52.494;6.976;2022-07-29T02:09:33;15.60;99.90
22895;DHT22;11614;52.494;6.976;2022-07-29T02:12:00;15.90;99.90
22895;DHT22;11614;52.494;6.976;2022-07-29T02:14:30;15.90;99.90
22895;DHT22;11614;52.494;6.976;2022-07-29T02:16:58;15.70;99.90
22895;DHT22;11614;52.494;6.976;2022-07-29T02:19:26;15.70;99.90
22895;DHT22;11614;52.494;6.976;2022-07-29T02:21:53;16.30;99.90
22895;DHT22;11614;52.494;6.976;2022-07-29T02:24:21;15.90;99.90
22895;DHT22;11614;52.494;6.976;2022-07-29T02:26:49;15.70;99.90
22895;DHT22;11614;52.494;6.976;2022-07-29T02:29:17;15.80;99.90
22895;DHT22;11614;52.494;6.976;2022-07-29T02:31:46;15.80;99.90
22895;DHT22;11614;52.494;6.976;2022-07-29T02:34:14;15.70;99.90
22895;DHT22;11614;52.494;6.976;2022-07-29T02:36:42;16.10;99.90
22895;DHT22;11614;52.494;6.976;2022-07-29T02:39:09;15.90;99.90
22895;DHT22;11614;52.494;6.976;2022-07-29T02:41:52;15.80;99.90
22895;DHT22;11614;52.494;6.976;2022-07-29T02:44:23;15.80;99.90
22895;DHT22;11614;52.494;6.976;2022-07-29T02:49:38;15.80;99.90
22895;DHT22;11614;52.494;6.976;2022-07-29T02:52:15;15.80;99.90
22895;DHT22;11614;52.494;6.976;2022-07-29T02:54:54;15.70;99.90
22895;DHT22;11614;52.494;6.976;2022-07-29T02:57:21;15.90;99.90
22895;DHT22;11614;52.494;6.976;2022-07-29T02:59:50;15.70;99.90
22895;DHT22;11614;52.494;6.976;2022-07-29T03:02:17;15.70;99.90
22895;DHT22;11614;52.494;6.976;2022-07-29T03:04:44;15.60;99.90
22895;DHT22;11614;52.494;6.976;2022-07-29T03:07:13;15.60;99.90
22895;DHT22;11614;52.494;6.976;2022-07-29T03:09:41;15.40;99.90
22895;DHT22;11614;52.494;6.976;2022-07-29T03:12:07;15.60;99.90
22895;DHT22;11614;52.494;6.976;2022-07-29T03:14:33;15.40;99.90
22895;DHT22;11614;52.494;6.976;2022-07-29T03:19:26;15.60;99.90
22895;DHT22;11614;52.494;6.976;2022-07-29T03:21:53;15.50;99.90
22895;DHT22;11614;52.494;6.976;2022-07-29T03:24:39;15.20;99.90
22895;DHT22;11614;52.494;6.976;2022-07-29T03:27:05;15.50;99.90
22895;DHT22;11614;52.494;6.976;2022-07-29T03:29:31;15.50;99.90
22895;DHT22;11614;52.494;6.976;2022-07-29T03:31:57;15.50;99.90
22895;DHT22;11614;52.494;6.976;2022-07-29T03:34:24;15.40;99.90
22895;DHT22;11614;52.494;6.976;2022-07-29T03:36:50;15.40;99.90
22895;DHT22;11614;52.494;6.976;2022-07-29T03:39:22;15.10;99.90
22895;DHT22;11614;52.494;6.976;2022-07-29T03:41:51;15.20;99.90
22895;DHT22;11614;52.494;6.976;2022-07-29T03:44:17;15.40;99.90
22895;DHT22;11614;52.494;6.976;2022-07-29T03:46:46;15.30;99.90
22895;DHT22;11614;52.494;6.976;2022-07-29T03:49:15;15.10;99.90
22895;DHT22;11614;52.494;6.976;2022-07-29T03:51:42;15.20;99.90
22895;DHT22;11614;52.494;6.976;2022-07-29T03:56:40;15.10;99.90
22895;DHT22;11614;52.494;6.976;2022-07-29T03:59:07;15.30;99.90
22895;DHT22;11614;52.494;6.976;2022-07-29T04:01:33;15.20;99.90
22895;DHT22;11614;52.494;6.976;2022-07-29T04:04:01;15.10;99.90
22895;DHT22;11614;52.494;6.976;2022-07-29T04:06:26;15.10;99.90
22895;DHT22;11614;52.494;6.976;2022-07-29T04:08:52;15.20;99.90
22895;DHT22;11614;52.494;6.976;2022-07-29T04:16:09;15.20;99.90
22895;DHT22;11614;52.494;6.976;2022-07-29T04:18:35;15.20;99.90
22895;DHT22;11614;52.494;6.976;2022-07-29T04:21:00;15.10;99.90
22895;DHT22;11614;52.494;6.976;2022-07-29T04:23:28;15.20;99.90
22895;DHT22;11614;52.494;6.976;2022-07-29T04:30:46;15.20;99.90
22895;DHT22;11614;52.494;6.976;2022-07-29T04:33:11;15.40;99.90
22895;DHT22;11614;52.494;6.976;2022-07-29T04:35:38;15.20;99.90
22895;DHT22;11614;52.494;6.976;2022-07-29T04:38:05;15.50;99.90
22895;DHT22;11614;52.494;6.976;2022-07-29T04:42:59;15.50;99.90
22895;DHT22;11614;52.494;6.976;2022-07-29T04:45:24;15.60;99.90
22895;DHT22;11614;52.494;6.976;2022-07-29T04:47:50;15.60;99.90
22895;DHT22;11614;52.494;6.976;2022-07-29T04:50:16;15.70;99.90
22895;DHT22;11614;52.494;6.976;2022-07-29T04:52:42;15.40;99.90
22895;DHT22;11614;52.494;6.976;2022-07-29T04:55:08;15.90;99.90
22895;DHT22;11614;52.494;6.976;2022-07-29T05:07:17;16.20;99.90
22895;DHT22;11614;52.494;6.976;2022-07-29T05:09:43;16.20;99.90
22895;DHT22;11614;52.494;6.976;2022-07-29T05:12:08;16.70;99.90
22895;DHT22;11614;52.494;6.976;2022-07-29T05:14:35;16.50;99.90
22895;DHT22;11614;52.494;6.976;2022-07-29T05:17:00;16.60;99.90
22895;DHT22;11614;52.494;6.976;2022-07-29T05:24:18;17.20;99.90
22895;DHT22;11614;52.494;6.976;2022-07-29T05:26:43;17.00;99.90
22895;DHT22;11614;52.494;6.976;2022-07-29T05:29:09;17.20;99.90
22895;DHT22;11614;52.494;6.976;2022-07-29T05:31:34;17.20;99.90
22895;DHT22;11614;52.494;6.976;2022-07-29T05:34:00;17.30;99.90
22895;DHT22;11614;52.494;6.976;2022-07-29T05:36:26;17.60;99.90
22895;DHT22;11614;52.494;6.976;2022-07-29T05:41:18;17.70;99.90
22895;DHT22;11614;52.494;6.976;2022-07-29T05:43:44;17.80;99.90
22895;DHT22;11614;52.494;6.976;2022-07-29T05:46:09;17.90;99.90
22895;DHT22;11614;52.494;6.976;2022-07-29T05:53:27;17.90;99.90
22895;DHT22;11614;52.494;6.976;2022-07-29T05:55:53;17.70;99.90
22895;DHT22;11614;52.494;6.976;2022-07-29T06:00:44;17.90;99.90
22895;DHT22;11614;52.494;6.976;2022-07-29T06:03:10;17.80;99.90
22895;DHT22;11614;52.494;6.976;2022-07-29T06:05:36;17.80;99.90
22895;DHT22;11614;52.494;6.976;2022-07-29T06:10:27;17.60;99.90
22895;DHT22;11614;52.494;6.976;2022-07-29T06:12:53;17.60;99.90
22895;DHT22;11614;52.494;6.976;2022-07-29T06:15:19;17.60;99.90
22895;DHT22;11614;52.494;6.976;2022-07-29T06:17:44;17.80;99.90
22895;DHT22;11614;52.494;6.976;2022-07-29T06:22:36;17.80;99.90
22895;DHT22;11614;52.494;6.976;2022-07-29T06:25:02;17.90;99.90
22895;DHT22;11614;52.494;6.976;2022-07-29T06:27:28;18.20;99.90
22895;DHT22;11614;52.494;6.976;2022-07-29T06:29:56;18.40;99.90
22895;DHT22;11614;52.494;6.976;2022-07-29T06:34:47;18.60;99.90
22895;DHT22;11614;52.494;6.976;2022-07-29T06:37:13;19.10;99.90
22895;DHT22;11614;52.494;6.976;2022-07-29T06:39:39;19.10;99.80
22895;DHT22;11614;52.494;6.976;2022-07-29T06:42:05;19.40;98.90
22895;DHT22;11614;52.494;6.976;2022-07-29T06:44:31;19.80;98.60
22895;DHT22;11614;52.494;6.976;2022-07-29T06:46:59;19.60;97.80
22895;DHT22;11614;52.494;6.976;2022-07-29T11:24:23;20.30;99.90
22895;DHT22;11614;52.494;6.976;2022-07-29T11:29:39;20.20;99.90
22895;DHT22;11614;52.494;6.976;2022-07-29T11:32:13;20.20;99.90
22895;DHT22;11614;52.494;6.976;2022-07-29T20:12:25;18.70;71.00
22895;DHT22;11614;52.494;6.976;2022-07-29T20:14:51;18.50;71.50
22895;DHT22;11614;52.494;6.976;2022-07-29T20:17:17;18.50;72.50
22895;DHT22;11614;52.494;6.976;2022-07-29T20:19:47;18.50;72.10
22895;DHT22;11614;52.494;6.976;2022-07-29T20:22:14;18.30;72.30
22895;DHT22;11614;52.494;6.976;2022-07-29T20:24:40;18.30;73.00
22895;DHT22;11614;52.494;6.976;2022-07-29T20:27:06;18.00;73.20
22895;DHT22;11614;52.494;6.976;2022-07-29T20:29:33;18.10;74.30
22895;DHT22;11614;52.494;6.976;2022-07-29T20:31:59;18.00;74.90
22895;DHT22;11614;52.494;6.976;2022-07-29T20:34:25;18.00;76.30
22895;DHT22;11614;52.494;6.976;2022-07-29T20:36:51;17.80;76.70
22895;DHT22;11614;52.494;6.976;2022-07-29T20:39:16;17.80;77.00
22895;DHT22;11614;52.494;6.976;2022-07-29T20:41:42;17.70;77.40
22895;DHT22;11614;52.494;6.976;2022-07-29T20:44:07;17.60;77.90
22895;DHT22;11614;52.494;6.976;2022-07-29T20:46:33;17.60;78.50
22895;DHT22;11614;52.494;6.976;2022-07-29T20:51:25;17.50;79.70
22895;DHT22;11614;52.494;6.976;2022-07-29T20:56:16;17.20;80.50
22895;DHT22;11614;52.494;6.976;2022-07-29T20:58:42;17.20;81.30
22895;DHT22;11614;52.494;6.976;2022-07-29T21:01:08;17.20;81.90
22895;DHT22;11614;52.494;6.976;2022-07-29T21:03:34;17.00;82.40
22895;DHT22;11614;52.494;6.976;2022-07-29T21:06:00;17.00;83.50
22895;DHT22;11614;52.494;6.976;2022-07-29T21:08:26;17.00;84.20
22895;DHT22;11614;52.494;6.976;2022-07-29T21:10:53;16.90;85.60
22895;DHT22;11614;52.494;6.976;2022-07-29T21:13:18;17.00;87.80
22895;DHT22;11614;52.494;6.976;2022-07-29T21:15:45;17.00;88.90
22895;DHT22;11614;52.494;6.976;2022-07-29T21:18:14;16.90;89.40
22895;DHT22;11614;52.494;6.976;2022-07-29T21:20:56;16.80;90.10
22895;DHT22;11614;52.494;6.976;2022-07-29T21:23:22;16.60;90.40
22895;DHT22;11614;52.494;6.976;2022-07-29T21:30:53;16.70;91.90
22895;DHT22;11614;52.494;6.976;2022-07-29T21:33:19;16.50;92.40
22895;DHT22;11614;52.494;6.976;2022-07-29T21:35:44;16.50;92.80
22895;DHT22;11614;52.494;6.976;2022-07-29T21:50:20;16.20;95.70
22895;DHT22;11614;52.494;6.976;2022-07-29T21:52:46;16.20;95.80
22895;DHT22;11614;52.494;6.976;2022-07-29T21:57:38;16.20;96.60
22895;DHT22;11614;52.494;6.976;2022-07-29T22:00:05;16.20;97.00
22895;DHT22;11614;52.494;6.976;2022-07-29T22:04:58;15.90;98.10
22895;DHT22;11614;52.494;6.976;2022-07-29T22:07:23;16.00;99.90
22895;DHT22;11614;52.494;6.976;2022-07-29T22:14:41;15.70;99.90
22895;DHT22;11614;52.494;6.976;2022-07-29T22:17:06;16.00;99.90
22895;DHT22;11614;52.494;6.976;2022-07-29T22:19:32;15.70;99.90
22895;DHT22;11614;52.494;6.976;2022-07-29T22:31:43;15.60;99.90
22895;DHT22;11614;52.494;6.976;2022-07-29T22:34:09;15.50;99.90
22895;DHT22;11614;52.494;6.976;2022-07-29T22:36:38;15.50;99.90
22895;DHT22;11614;52.494;6.976;2022-07-29T22:39:05;15.50;99.90
22895;DHT22;11614;52.494;6.976;2022-07-29T22:41:30;15.40;99.90
22895;DHT22;11614;52.494;6.976;2022-07-29T22:51:14;15.40;99.90
22895;DHT22;11614;52.494;6.976;2022-07-29T22:53:39;15.40;99.90
22895;DHT22;11614;52.494;6.976;2022-07-29T22:56:05;15.40;99.90
22895;DHT22;11614;52.494;6.976;2022-07-29T23:00:57;15.30;99.90
22895;DHT22;11614;52.494;6.976;2022-07-29T23:08:17;15.20;99.90
22895;DHT22;11614;52.494;6.976;2022-07-29T23:13:08;15.30;99.90
22895;DHT22;11614;52.494;6.976;2022-07-29T23:15:34;15.00;99.90
22895;DHT22;11614;52.494;6.976;2022-07-29T23:18:00;15.10;99.90
22895;DHT22;11614;52.494;6.976;2022-07-29T23:20:25;15.10;99.90
22895;DHT22;11614;52.494;6.976;2022-07-29T23:30:09;14.90;99.90
22895;DHT22;11614;52.494;6.976;2022-07-29T23:35:02;14.90;99.90
22895;DHT22;11614;52.494;6.976;2022-07-29T23:37:29;14.90;99.90
22895;DHT22;11614;52.494;6.976;2022-07-29T23:39:55;14.80;99.90
22895;DHT22;11614;52.494;6.976;2022-07-29T23:42:21;14.90;99.90
22895;DHT22;11614;52.494;6.976;2022-07-29T23:44:46;14.70;99.90
22895;DHT22;11614;52.494;6.976;2022-07-29T23:49:38;14.70;99.90
22895;DHT22;11614;52.494;6.976;2022-07-29T23:52:04;14.90;99.90
22895;DHT22;11614;52.494;6.976;2022-07-29T23:54:30;14.70;99.90
22895;DHT22;11614;52.494;6.976;2022-07-29T23:56:55;14.80;99.90
22895;DHT22;11614;52.494;6.976;2022-07-29T23:59:22;14.90;99.90
